Thunder radar more information blitzortung!


Radar de pluja more information rain snow radar


Visita la nostra xarxa de llocs de meteo:

Template documentation
and downloads

And another site



No particular awareness of the weather is required.    There are no Weather-warnings

Pagina Historial Weather Underground text

Diari Resum Desembre 28, 2017 Unitats:  Mètric    Imperial   Tant
« Previous Dia
SegĂźent Dia »
Diari Setmana Mensual Anual Personalitzada
  Maxima: Minima: Media:
Temperatura: -17.8 °C -16.1 °C -13.4 °C
Punt de rosada: -17.8 °C -19.2 °C -17.8 °C
Humitat: Humidity % 48 % 58 %
Wind Speed: 0 km/h 0 km/h 7.9 km/h
RĂ fegues de vent: 0 km/h - -
Vent:- - South
Pression baro: 0 hPa 34029.3 hPa -
Precipitacions: 0 mm    
Historical Graphs
 
 
Dades de taula per Desembre 28, 2017
Temps Temperatura Punt de rosada Pression baro Vent Wind Speed RĂ fegues de vent Humitat Rainfall Rate (Hourly)
-17.8 °C -17.8 °C 0 hPa Calm     Humidity % 0 mm
00:01 -15 °C -19.2 °C 34063.2 hPa SW 15 km/h 15 km/h 58 % 0 mm
00:04 -15 °C -19.2 °C 34063.2 hPa WSW 17.9 km/h 17.9 km/h 58 % 0 mm
00:06 -15 °C -19.2 °C 34063.2 hPa WSW 20.9 km/h 20.9 km/h 58 % 0 mm
00:10 -15.1 °C -18.7 °C 34029.3 hPa West 5.1 km/h 18.2 km/h 63 % 0 mm
00:20 -15.2 °C -18.8 °C 34029.3 hPa WSW 7.7 km/h 15.6 km/h 63 % 0 mm
00:30 -15.1 °C -18.7 °C 34029.3 hPa WSW 5.1 km/h 10.3 km/h 63 % 0 mm
00:40 -15.2 °C -18.8 °C 34063.2 hPa WSW 5.1 km/h 10.3 km/h 63 % 0 mm
00:50 -15.2 °C -18.8 °C 34063.2 hPa SW 2.6 km/h 5.1 km/h 63 % 0 mm
01:00 -15.3 °C -18.8 °C 34063.2 hPa SW 5.1 km/h 10.3 km/h 63 % 0 mm
01:10 -15.3 °C -18.8 °C 34063.2 hPa SW 7.7 km/h 10.3 km/h 63 % 0 mm
01:20 -15.2 °C -18.8 °C 34063.2 hPa SW 5.1 km/h 10.3 km/h 63 % 0 mm
01:30 -15.3 °C -18.8 °C 34063.2 hPa SW 2.6 km/h 7.7 km/h 63 % 0 mm
01:40 -15.3 °C -18.8 °C 34063.2 hPa WSW 7.7 km/h 7.7 km/h 63 % 0 mm
01:50 -15.3 °C -18.8 °C 34063.2 hPa WSW 7.7 km/h 7.7 km/h 63 % 0 mm
02:20 -15.1 °C -18.6 °C 34063.2 hPa WSW 12.9 km/h 15.6 km/h 64 % 0 mm
02:30 -15.2 °C -18.7 °C 34063.2 hPa WSW 7.7 km/h 12.9 km/h 64 % 0 mm
02:40 -15.1 °C -18.6 °C 34063.2 hPa WSW 7.7 km/h 12.9 km/h 64 % 0 mm
02:50 -14.9 °C -18.4 °C 34063.2 hPa WSW 7.7 km/h 15.6 km/h 64 % 0 mm
03:00 -14.8 °C -18.3 °C 34063.2 hPa WSW 7.7 km/h 7.7 km/h 64 % 0 mm
03:10 -14.7 °C -18.3 °C 34097 hPa WSW 7.7 km/h 7.7 km/h 63 % 0 mm
03:20 -14.6 °C -18.2 °C 34063.2 hPa WSW 5.1 km/h 15.6 km/h 63 % 0 mm
03:30 -14.4 °C -18.1 °C 34063.2 hPa WSW 15.6 km/h 15.6 km/h 63 % 0 mm
03:40 -14.3 °C -18 °C 34097 hPa WSW 7.7 km/h 15.6 km/h 62 % 0 mm
03:50 -14.2 °C -17.9 °C 34097 hPa WSW 15.6 km/h 18.2 km/h 62 % 0 mm
04:00 -14.1 °C -17.9 °C 34097 hPa WSW 7.7 km/h 20.8 km/h 61 % 0 mm
04:10 -13.9 °C -17.8 °C 34063.2 hPa WSW 12.9 km/h 15.6 km/h 61 % 0 mm
04:20 -13.8 °C -17.8 °C 34097 hPa WSW 15.6 km/h 15.6 km/h 60 % 0 mm
04:30 -13.6 °C -17.6 °C 34097 hPa WSW 7.7 km/h 12.9 km/h 60 % 0 mm
04:40 -13.3 °C -17.4 °C 34097 hPa West 7.7 km/h 15.6 km/h 59 % 0 mm
04:50 -13.2 °C -17.5 °C 34097 hPa West 7.7 km/h 12.9 km/h 58 % 0 mm
08:10 -11 °C -16.9 °C 34063.2 hPa NW 7.7 km/h 15.6 km/h 48 % 0 mm
08:20 -11.1 °C -17.1 °C 34063.2 hPa WNW 7.7 km/h 10.3 km/h 48 % 0 mm
08:30 -11.2 °C -16.9 °C 34063.2 hPa WNW 7.7 km/h 15.6 km/h 49 % 0 mm
08:40 -11.3 °C -17.2 °C 34063.2 hPa WNW 15.6 km/h 15.6 km/h 48 % 0 mm
08:50 -11.3 °C -17.1 °C 34063.2 hPa West 7.7 km/h 15.6 km/h 49 % 0 mm
09:00 -11.4 °C -17.1 °C 34063.2 hPa WSW 7.7 km/h 15.6 km/h 49 % 0 mm
09:10 -11.4 °C -17.2 °C 34063.2 hPa WSW 5.1 km/h 15.6 km/h 49 % 0 mm
09:20 -11.4 °C -17.2 °C 34063.2 hPa WSW 7.7 km/h 12.9 km/h 49 % 0 mm
09:30 -11.5 °C -17.1 °C 34063.2 hPa WSW 7.7 km/h 12.9 km/h 50 % 0 mm
09:40 -11.6 °C -17.2 °C 34063.2 hPa WSW 18.2 km/h 20.8 km/h 50 % 0 mm
09:50 -11.7 °C -17.3 °C 34063.2 hPa WSW 15.6 km/h 20.8 km/h 50 % 0 mm
10:00 -11.8 °C -17.3 °C 34063.2 hPa WSW 12.9 km/h 23.3 km/h 50 % 0 mm
10:10 -11.8 °C -17.3 °C 34063.2 hPa WSW 7.7 km/h 15.6 km/h 51 % 0 mm
10:20 -11.9 °C -17.3 °C 34029.3 hPa West 5.1 km/h 10.3 km/h 51 % 0 mm
10:30 -11.9 °C -17.3 °C 34029.3 hPa WSW 7.7 km/h 20.8 km/h 51 % 0 mm
10:40 -12 °C -17.4 °C 34063.2 hPa West 7.7 km/h 7.7 km/h 51 % 0 mm
10:50 -12 °C -17.3 °C 34063.2 hPa West 12.9 km/h 12.9 km/h 52 % 0 mm
10:52 -13.1 °C -17.7 °C 34097 hPa NW 6 km/h 10.3 km/h 56 % 0 mm
10:53 -13.1 °C -17.7 °C 34097 hPa SW 16.6 km/h 16.6 km/h 56 % 0 mm
10:54 -13.1 °C -17.7 °C 34097 hPa SW 15 km/h 15 km/h 56 % 0 mm
10:59 -12.9 °C -17.6 °C 34097 hPa West 11.9 km/h 11.9 km/h 56 % 0 mm
11:00 -12.1 °C -17.3 °C 34063.2 hPa WSW 7.7 km/h 12.9 km/h 52 % 0 mm
11:04 -12.8 °C -17.6 °C 34097 hPa WNW 29.8 km/h 29.8 km/h 55 % 0 mm
11:05 -12.8 °C -17.6 °C 34097 hPa West 29.8 km/h 29.8 km/h 55 % 0 mm
11:10 -12.8 °C -17.6 °C 34130.9 hPa WNW 15 km/h 15 km/h 55 % 0 mm
11:14 -12.7 °C -17.6 °C 34130.9 hPa WSW 12.7 km/h 12.7 km/h 54 % 0 mm
11:16 -12.7 °C -17.6 °C 34130.9 hPa NW 9 km/h 12.2 km/h 54 % 0 mm
11:20 -12.2 °C -17.4 °C 34063.2 hPa WSW 5.1 km/h 7.7 km/h 52 % 0 mm
11:21 -12.6 °C -17.6 °C 34130.9 hPa WNW 11.9 km/h 11.9 km/h 54 % 0 mm
11:22 -12.6 °C -17.4 °C 34130.9 hPa WNW 25.9 km/h 25.9 km/h 54 % 0 mm
11:26 -12.6 °C -17.4 °C 34097 hPa SSE 9.3 km/h 12.2 km/h 54 % 0 mm
11:27 -12.5 °C -17.4 °C 34097 hPa SSE 9.3 km/h 12.2 km/h 54 % 0 mm
11:32 -12.4 °C -17.3 °C 34097 hPa WSW 9.3 km/h 9.3 km/h 54 % 0 mm
11:33 -12.2 °C -17.2 °C 34097 hPa West 9 km/h   54 % 0 mm
11:38 -12.2 °C -17.1 °C 34097 hPa WSW 11.9 km/h 11.9 km/h 54 % 0 mm
11:39 -12.2 °C -17.1 °C 34097 hPa SW 11.9 km/h 11.9 km/h 54 % 0 mm
11:40 -12.1 °C -17.1 °C 34097 hPa WSW 9.3 km/h 9.3 km/h 54 % 0 mm
11:45 -12.2 °C -17.3 °C 34097 hPa North 9 km/h 9 km/h 53 % 0 mm
11:49 -12.1 °C -17.2 °C 34097 hPa NW 6 km/h 6 km/h 53 % 0 mm
11:50 -12.1 °C -17.2 °C 34097 hPa SW 6 km/h 6.3 km/h 53 % 0 mm
11:55 -12.1 °C -17.2 °C 34097 hPa WNW 11.9 km/h 11.9 km/h 53 % 0 mm
11:56 -12.1 °C -17.2 °C 34097 hPa West 9.3 km/h 9.3 km/h 53 % 0 mm
12:01 -11.8 °C -16.9 °C 34097 hPa WNW 6 km/h 6 km/h 53 % 0 mm
12:03 -11.8 °C -16.9 °C 34097 hPa West 6.3 km/h 6.8 km/h 53 % 0 mm
12:07 -11.7 °C -16.8 °C 34097 hPa SW 6.3 km/h 6.3 km/h 53 % 0 mm
12:08 -11.7 °C -16.8 °C 34097 hPa WSW 8 km/h 8 km/h 53 % 0 mm
12:12 -11.8 °C -17.1 °C 34097 hPa NNE 6 km/h 6 km/h 52 % 0 mm
12:14 -11.8 °C -17.1 °C 34097 hPa WNW 9.8 km/h 9.8 km/h 52 % 0 mm
12:18 -11.7 °C -17 °C 34097 hPa NNW 20.9 km/h 20.9 km/h 52 % 0 mm
12:23 -11.8 °C -17.1 °C 34063.2 hPa West 9 km/h 9 km/h 52 % 0 mm
12:28 -11.4 °C -16.7 °C 34063.2 hPa WSW 6 km/h 6 km/h 52 % 0 mm
12:29 -11.4 °C -16.7 °C 34063.2 hPa NE 11.9 km/h 11.9 km/h 52 % 0 mm
12:34 -11.3 °C -16.6 °C 34063.2 hPa SW 9 km/h 9 km/h 52 % 0 mm
12:35 -11.3 °C -16.6 °C 34063.2 hPa WNW 9 km/h 9 km/h 52 % 0 mm
12:40 -11.3 °C -16.7 °C 34063.2 hPa WNW 11.9 km/h 11.9 km/h 51 % 0 mm
12:41 -11.3 °C -16.7 °C 34063.2 hPa SSW 11.9 km/h 11.9 km/h 51 % 0 mm
12:42 -11.3 °C -16.8 °C 34063.2 hPa West 11.9 km/h 11.9 km/h 51 % 0 mm
12:46 -11.3 °C -16.7 °C 34063.2 hPa ESE 6.8 km/h 6.8 km/h 51 % 0 mm
12:51 -11.2 °C -16.6 °C 34063.2 hPa NW 11.9 km/h 11.9 km/h 51 % 0 mm
12:56 -11.2 °C -16.6 °C 34063.2 hPa West 11.1 km/h 11.1 km/h 51 % 0 mm
12:57 -11.1 °C -16.6 °C 34063.2 hPa NW 11.9 km/h 11.9 km/h 51 % 0 mm
13:02 -11.2 °C -16.8 °C 34063.2 hPa West 15 km/h 15 km/h 50 % 0 mm
13:04 -11.2 °C -16.8 °C 34063.2 hPa WSW 15 km/h 15 km/h 50 % 0 mm
13:09 -11 °C -16.6 °C 34063.2 hPa SSW 11.9 km/h 11.9 km/h 50 % 0 mm
13:14 -10.8 °C -16.5 °C 34063.2 hPa WNW 15 km/h 15 km/h 50 % 0 mm
13:15 -10.8 °C -16.5 °C 34063.2 hPa WSW 11.9 km/h 11.9 km/h 50 % 0 mm
13:17 -10.8 °C -16.4 °C 34063.2 hPa SW 11.9 km/h 11.9 km/h 50 % 0 mm
13:21 -10.7 °C -16.3 °C 34063.2 hPa SW 22.5 km/h 22.5 km/h 50 % 0 mm
13:26 -10.7 °C -16.6 °C 34029.3 hPa WNW 20.3 km/h 20.3 km/h 49 % 0 mm
13:31 -10.9 °C -16.9 °C 34029.3 hPa WNW 15.3 km/h 15.3 km/h 48 % 0 mm
13:35 -11.1 °C -17.1 °C 34029.3 hPa West 15 km/h 15 km/h 48 % 0 mm
13:37 -11.2 °C -17.2 °C 34029.3 hPa West 9 km/h 14 km/h 48 % 0 mm
13:42 -11.2 °C -17.2 °C 34063.2 hPa WSW 9 km/h 9 km/h 48 % 0 mm
13:47 -11.3 °C -17.2 °C 34063.2 hPa WNW 6 km/h 6 km/h 48 % 0 mm
13:48 -11.3 °C -17.2 °C 34063.2 hPa WSW 9.3 km/h 9.3 km/h 48 % 0 mm
13:51 -11.3 °C -17.2 °C 34063.2 hPa ESE 6 km/h 7.6 km/h 48 % 0 mm
13:53 -11.2 °C -17.2 °C 34063.2 hPa WNW 8.5 km/h 8.5 km/h 48 % 0 mm
13:58 -11.1 °C -16.9 °C 34063.2 hPa West 9 km/h 9 km/h 49 % 0 mm
15:10 -14.3 °C -18.2 °C 34198.6 hPa NE 7.7 km/h 7.7 km/h 61 % 0 mm
15:20 -14.3 °C -18.1 °C 34198.6 hPa Calm   7.7 km/h 62 % 0 mm
15:40 -14.4 °C -18.2 °C 34198.6 hPa NNE 5.1 km/h 7.7 km/h 62 % 0 mm
17:27 -12.2 °C -17.3 °C 34063.2 hPa SW 9 km/h 9 km/h 53 % 0 mm
17:28 -12.2 °C -17.3 °C 34063.2 hPa WSW 9 km/h 9 km/h 53 % 0 mm
17:33 -12.3 °C -17.3 °C 34063.2 hPa West 5.1 km/h 5.1 km/h 53 % 0 mm
17:35 -12.3 °C -17.3 °C 34063.2 hPa West 9 km/h 9 km/h 53 % 0 mm
17:37 -12.3 °C -17.4 °C 34063.2 hPa WSW 6 km/h 6.3 km/h 53 % 0 mm
17:41 -12.4 °C -17.4 °C 34097 hPa West 17.9 km/h 17.9 km/h 53 % 0 mm
17:45 -12.4 °C -17.5 °C 34097 hPa West 11.9 km/h 11.9 km/h 53 % 0 mm
17:47 -12.4 °C -17.5 °C 34097 hPa West 12.7 km/h 12.7 km/h 53 % 0 mm
17:52 -12.6 °C -17.6 °C 34097 hPa WSW 17.9 km/h 17.9 km/h 53 % 0 mm
17:57 -12.6 °C -17.6 °C 34097 hPa West 15 km/h 15 km/h 54 % 0 mm
17:58 -12.6 °C -17.6 °C 34097 hPa West 15 km/h 15 km/h 54 % 0 mm
18:01 -12.7 °C -17.6 °C 34097 hPa NW 10.3 km/h 10.3 km/h 54 % 0 mm
18:05 -12.7 °C -17.6 °C 34097 hPa West 9.8 km/h 9.8 km/h 54 % 0 mm
18:10 -12.7 °C -17.6 °C 34097 hPa WNW 15 km/h 15 km/h 54 % 0 mm
18:11 -12.8 °C -17.7 °C 34097 hPa NE 11.9 km/h 11.9 km/h 54 % 0 mm
18:13 -12.8 °C -17.7 °C 34097 hPa NNW 3.1 km/h   54 % 0 mm
18:18 -12.9 °C -17.8 °C 34097 hPa NNE 6 km/h 6 km/h 54 % 0 mm
18:19 -12.9 °C -17.8 °C 34097 hPa NNW 15.6 km/h 15.6 km/h 54 % 0 mm
18:24 -12.9 °C -17.8 °C 34097 hPa NNW 11.9 km/h 11.9 km/h 54 % 0 mm
18:30 -15.1 °C -18.2 °C 34256.2 hPa Calm   5.1 km/h 67 % 0 mm
18:34 -13.1 °C -17.8 °C 34097 hPa North 6 km/h 6 km/h 55 % 0 mm
18:35 -13.1 °C -17.8 °C 34097 hPa ENE 6.3 km/h 6.3 km/h 55 % 0 mm
18:36 -13.1 °C -17.8 °C 34097 hPa ESE 9 km/h 9 km/h 55 % 0 mm
18:40 -15.2 °C -18.2 °C 34293.4 hPa East 5.1 km/h 7.7 km/h 68 % 0 mm
18:41 -13 °C -17.7 °C 34130.9 hPa NNW 3.1 km/h   55 % 0 mm
18:42 -13 °C -17.7 °C 34130.9 hPa NNE 3.1 km/h   55 % 0 mm
18:46 -13.1 °C -17.8 °C 34130.9 hPa NNE 6 km/h 6 km/h 55 % 0 mm
18:49 -13.1 °C -17.8 °C 34130.9 hPa West 9 km/h 9 km/h 55 % 0 mm
18:50 -15.4 °C -18.5 °C 34293.4 hPa Calm   5.1 km/h 67 % 0 mm
18:54 -13.1 °C -17.8 °C 34164.7 hPa West 11.9 km/h 11.9 km/h 55 % 0 mm
18:56 -13.1 °C -17.8 °C 34164.7 hPa WNW 3.1 km/h 4.2 km/h 55 % 0 mm
18:57 -13.1 °C -17.8 °C 34164.7 hPa ENE 6 km/h 6 km/h 55 % 0 mm
19:00 -15.5 °C -18.5 °C 34293.4 hPa Calm     68 % 0 mm
19:01 -13.2 °C -17.9 °C 34164.7 hPa ENE 3.1 km/h 3.7 km/h 55 % 0 mm
19:06 -13.3 °C -18.1 °C 34164.7 hPa Calm     55 % 0 mm
19:07 -13.3 °C -18.1 °C 34164.7 hPa East 5.6 km/h   55 % 0 mm
19:10 -15.5 °C -18.5 °C 34327.3 hPa Calm   7.7 km/h 68 % 0 mm
19:11 -13.4 °C -18.2 °C 34130.9 hPa NE 3.1 km/h   55 % 0 mm
19:12 -13.4 °C -18.2 °C 34130.9 hPa NE 3.1 km/h   55 % 0 mm
19:17 -13.5 °C -18.2 °C 34130.9 hPa NE 3.1 km/h   55 % 0 mm
19:18 -13.5 °C -18.2 °C 34130.9 hPa ENE 3.1 km/h   55 % 0 mm
19:20 -13.6 °C -18.1 °C 34130.9 hPa NE 3.1 km/h 3.1 km/h 56 % 0 mm
19:25 -13.6 °C -18.2 °C 34130.9 hPa NE 3.1 km/h   56 % 0 mm
19:30 -13.7 °C -18.2 °C 34130.9 hPa WNW 3.1 km/h   56 % 0 mm
19:31 -13.7 °C -18.3 °C 34130.9 hPa WNW 3.1 km/h 3.1 km/h 56 % 0 mm
19:36 -13.8 °C -18.3 °C 34130.9 hPa North 3.1 km/h   56 % 0 mm
19:40 -15.4 °C -18.3 °C 34327.3 hPa ENE 5.1 km/h 7.7 km/h 69 % 0 mm
19:41 -13.8 °C -18.4 °C 34164.7 hPa Calm     56 % 0 mm
19:43 -13.8 °C -18.4 °C 34164.7 hPa Calm     56 % 0 mm
19:45 -13.9 °C -18.3 °C 34164.7 hPa WNW 3.1 km/h   57 % 0 mm
19:48 -13.9 °C -18.4 °C 34164.7 hPa NNE 6 km/h 6 km/h 57 % 0 mm
19:50 -15.4 °C -18.4 °C 34327.3 hPa NNE 7.7 km/h 10.3 km/h 68 % 0 mm
19:51 -13.9 °C -18.4 °C 34164.7 hPa NNE 6 km/h 6 km/h 57 % 0 mm
19:54 -13.9 °C -18.4 °C 34130.9 hPa NNE 7.6 km/h 7.6 km/h 57 % 0 mm
19:58 -13.9 °C -18.2 °C 34130.9 hPa NE 6 km/h 6 km/h 58 % 0 mm
20:00 -15.4 °C -18.4 °C 34327.3 hPa NNE 2.6 km/h 12.9 km/h 68 % 0 mm
20:03 -14 °C -18.3 °C 34130.9 hPa NE 9 km/h 9 km/h 58 % 0 mm
20:08 -14.1 °C -18.3 °C 34130.9 hPa ENE 7.6 km/h 7.6 km/h 58 % 0 mm
20:09 -14.1 °C -18.3 °C 34130.9 hPa East 8.5 km/h 8.5 km/h 58 % 0 mm
20:10 -15.4 °C -18.4 °C 34327.3 hPa North 2.6 km/h 5.1 km/h 68 % 0 mm
20:20 -15.3 °C -18.2 °C 34327.3 hPa NW 5.1 km/h 10.3 km/h 69 % 0 mm
20:30 -15.2 °C -18.1 °C 34327.3 hPa WNW 2.6 km/h 2.6 km/h 69 % 0 mm
20:40 -15.2 °C -18.1 °C 34293.4 hPa SSW 2.6 km/h 5.1 km/h 69 % 0 mm
20:50 -15.3 °C -18.2 °C 34327.3 hPa Calm   5.1 km/h 69 % 0 mm
21:00 -15.4 °C -18.3 °C 34327.3 hPa Calm     69 % 0 mm
21:10 -15.4 °C -18.3 °C 34327.3 hPa Calm     69 % 0 mm
21:20 -15.6 °C -18.4 °C 34361.1 hPa SW 5.1 km/h 5.1 km/h 69 % 0 mm
21:30 -15.7 °C -18.4 °C 34361.1 hPa Calm     70 % 0 mm
21:40 -15.7 °C -18.5 °C 34327.3 hPa Calm   5.1 km/h 70 % 0 mm
21:42 -14.4 °C -18 °C 34198.6 hPa NNE 11.9 km/h 11.9 km/h 63 % 0 mm
21:43 -14.4 °C -18 °C 34198.6 hPa NNE 11.9 km/h 11.9 km/h 63 % 0 mm
21:45 -14.4 °C -18 °C 34198.6 hPa ESE 9 km/h 9 km/h 63 % 0 mm
21:50 -14.4 °C -18.1 °C 34198.6 hPa ESE 6 km/h 6 km/h 63 % 0 mm
21:51 -14.4 °C -18.1 °C 34198.6 hPa ENE 6 km/h 6 km/h 63 % 0 mm
21:52 -14.4 °C -18.1 °C 34198.6 hPa NNE 3.1 km/h   63 % 0 mm
21:56 -14.5 °C -18.1 °C 34198.6 hPa ENE 6 km/h 6 km/h 63 % 0 mm
22:00 -14.5 °C -18.1 °C 34198.6 hPa NW 3.1 km/h   63 % 0 mm
22:02 -14.6 °C -18.2 °C 34198.6 hPa ENE 4.2 km/h 4.2 km/h 63 % 0 mm
22:03 -14.6 °C -18.2 °C 34198.6 hPa NNE 3.1 km/h 3.1 km/h 63 % 0 mm
22:08 -14.6 °C -18.2 °C 34198.6 hPa WNW 9 km/h 9 km/h 63 % 0 mm
22:10 -14.6 °C -18.2 °C 34198.6 hPa ENE 6 km/h   63 % 0 mm
22:15 -14.7 °C -18.3 °C 34198.6 hPa ENE 9 km/h 9 km/h 63 % 0 mm
22:20 -14.7 °C -18.3 °C 34198.6 hPa NNE 4.2 km/h   63 % 0 mm
22:25 -14.8 °C -18.3 °C 34222.3 hPa NE 6.3 km/h 6.3 km/h 64 % 0 mm
22:26 -14.8 °C -18.3 °C 34222.3 hPa NE 6.3 km/h 6.3 km/h 64 % 0 mm
22:30 -14.8 °C -18.3 °C 34222.3 hPa NE 2.6 km/h 5.1 km/h 64 % 0 mm
22:34 -14.9 °C -18.4 °C 34222.3 hPa NE 6 km/h 6 km/h 64 % 0 mm
22:39 -14.9 °C -18.4 °C 34222.3 hPa NNE 9 km/h 9 km/h 64 % 0 mm
22:40 -14.9 °C -18.4 °C 34222.3 hPa NNE 9.3 km/h 9.3 km/h 64 % 0 mm
22:45 -14.9 °C -18.4 °C 34222.3 hPa NW 3.1 km/h   64 % 0 mm
22:46 -14.9 °C -18.4 °C 34222.3 hPa WNW 3.1 km/h   64 % 0 mm
22:50 -16 °C -18.6 °C 34361.1 hPa North 5.1 km/h 7.7 km/h 72 % 0 mm
22:51 -14.9 °C -18.4 °C 34222.3 hPa North 3.1 km/h   64 % 0 mm
22:55 -14.9 °C -18.4 °C 34256.2 hPa WNW 3.1 km/h 3.1 km/h 64 % 0 mm
22:58 -14.9 °C -18.4 °C 34256.2 hPa NE 6 km/h 6 km/h 64 % 0 mm
23:00 -14.8 °C -18.2 °C 34256.2 hPa NE 3.7 km/h 3.7 km/h 65 % 0 mm
23:04 -14.8 °C -18.2 °C 34256.2 hPa NNE 6 km/h   65 % 0 mm
23:06 -14.8 °C -18.2 °C 34256.2 hPa NNE 6 km/h 6 km/h 65 % 0 mm
23:11 -14.9 °C -18.2 °C 34256.2 hPa NE 3.7 km/h 3.7 km/h 65 % 0 mm
23:12 -14.9 °C -18.2 °C 34256.2 hPa NW 3.7 km/h 3.7 km/h 65 % 0 mm
23:13 -14.9 °C -18.2 °C 34256.2 hPa NW 3.1 km/h 3.1 km/h 65 % 0 mm
23:17 -14.9 °C -18.2 °C 34256.2 hPa NNE 4.2 km/h 4.2 km/h 65 % 0 mm
23:20 -14.9 °C -18.2 °C 34256.2 hPa NNE 5.1 km/h 5.1 km/h 65 % 0 mm
23:24 -14.9 °C -18.2 °C 34222.3 hPa NNE 6 km/h 6 km/h 65 % 0 mm
23:29 -14.9 °C -18.2 °C 34222.3 hPa North 3.1 km/h 3.1 km/h 65 % 0 mm
23:30 -16.1 °C -18.7 °C 34327.3 hPa Calm   2.6 km/h 72 % 0 mm
23:34 -14.9 °C -18.2 °C 34222.3 hPa NNE 3.1 km/h   66 % 0 mm
23:36 -14.9 °C -18.2 °C 34222.3 hPa NNE 3.1 km/h 3.1 km/h 66 % 0 mm
23:40 -14.9 °C -18.2 °C 34256.2 hPa NE 3.1 km/h 3.1 km/h 66 % 0 mm
23:42 -14.9 °C -18.2 °C 34256.2 hPa NNE 3.1 km/h 3.1 km/h 66 % 0 mm
23:47 -14.9 °C -18.3 °C 34256.2 hPa WNW 3.1 km/h   65 % 0 mm
23:49 -14.9 °C -18.2 °C 34256.2 hPa ENE 3.7 km/h   66 % 0 mm
23:50 -14.9 °C -18.2 °C 34256.2 hPa North 3.7 km/h 3.7 km/h 66 % 0 mm
23:55 -14.9 °C -18.2 °C 34256.2 hPa NE 9 km/h 9 km/h 66 % 0 mm
23:56 -14.9 °C -18.2 °C 34256.2 hPa NNE 6.3 km/h 6.3 km/h 66 % 0 mm
Meteo Sesrovires
Elogis d' Weather Underground - 3.75 mb

Guio original per  Jim McMurry - jmcmurry@mwt.net Adaptat per a la plantilla per  Wim van der Kuil - Leuven-Template.eu

Trobareu la nostra informacio del temps tambe a:

Weather Underground

AWEKAS